Time;durP1;ratioP1;P1;durP2;ratioP2;P2;SDS_P1;SDS_P2;PMS_P1;PMS_P2;Temp;Humidity;BMP_temperature;BMP_pressure;BME280_temperature;BME280_humidity;BME280_pressure;Samples;Min_cycle;Max_cycle;Signal;HPM_P1;HPM_P2
2022/11/18 00:01:16;;;;;;;0.07;0.07;;;8.90;99.90;;;;;;5098710;28;20279;-85
2022/11/18 00:03:43;;;;;;;0.10;0.10;;;8.80;99.90;;;;;;5106322;28;20202;-84
2022/11/18 00:06:11;;;;;;;0.10;0.10;;;8.50;99.90;;;;;;5101321;28;20195;-85
2022/11/18 00:08:37;;;;;;;0.10;0.10;;;8.30;99.90;;;;;;5084618;28;20173;-84
2022/11/18 00:11:08;;;;;;;0.10;0.10;;;8.20;99.90;;;;;;5104231;28;20202;-84
2022/11/18 00:16:21;;;;;;;0.10;0.10;;;8.00;99.90;;;;;;5093575;28;20223;-84
2022/11/18 00:18:46;;;;;;;0.10;0.10;;;8.10;99.90;;;;;;5102880;28;20184;-84
2022/11/18 00:21:12;;;;;;;0.10;0.10;;;8.10;99.90;;;;;;5086690;28;20208;-84
2022/11/18 00:23:39;;;;;;;0.10;0.10;;;8.20;99.90;;;;;;5100308;28;20176;-84
2022/11/18 00:26:12;;;;;;;0.10;0.10;;;8.30;99.90;;;;;;5086625;28;20681;-84
2022/11/18 00:28:38;;;;;;;0.10;0.10;;;8.30;99.90;;;;;;5091018;28;20195;-84
2022/11/18 00:31:10;;;;;;;0.10;0.10;;;8.40;99.90;;;;;;5100873;28;20206;-84
2022/11/18 00:33:36;;;;;;;0.00;0.00;;;8.50;99.90;;;;;;5110808;28;20183;-84
2022/11/18 00:36:03;;;;;;;0.10;0.10;;;8.70;99.90;;;;;;5102301;28;20185;-84
2022/11/18 00:38:29;;;;;;;0.10;0.10;;;8.80;99.90;;;;;;5091240;28;20359;-84
2022/11/18 00:41:06;;;;;;;0.10;0.10;;;9.00;99.90;;;;;;5091027;28;20198;-84
2022/11/18 00:43:33;;;;;;;0.10;0.10;;;8.90;99.90;;;;;;5107614;28;20168;-84
2022/11/18 00:45:58;;;;;;;0.10;0.10;;;8.80;99.90;;;;;;5089307;28;20200;-84
2022/11/18 00:48:24;;;;;;;0.10;0.10;;;8.80;99.90;;;;;;5105711;28;20177;-84
2022/11/18 00:50:53;;;;;;;0.10;0.10;;;8.70;99.90;;;;;;5085847;28;20204;-85
2022/11/18 00:53:20;;;;;;;0.10;0.10;;;8.70;99.90;;;;;;5105248;28;20188;-84
2022/11/18 00:55:47;;;;;;;0.10;0.10;;;8.70;99.90;;;;;;5104232;28;20650;-84
2022/11/18 00:58:15;;;;;;;0.10;0.10;;;8.80;99.90;;;;;;5089953;28;20184;-84
2022/11/18 01:00:47;;;;;;;0.10;0.10;;;8.90;99.90;;;;;;5095382;28;20231;-84
2022/11/18 01:03:12;;;;;;;0.10;0.10;;;8.90;99.90;;;;;;5088583;28;20646;-84
2022/11/18 01:05:38;;;;;;;0.10;0.10;;;9.00;99.90;;;;;;5094482;28;20185;-84
2022/11/18 01:08:05;;;;;;;0.10;0.10;;;9.10;99.90;;;;;;5088563;28;20181;-82
2022/11/18 01:10:31;;;;;;;0.10;0.10;;;9.20;99.90;;;;;;5095346;28;20229;-84
2022/11/18 01:15:42;;;;;;;0.10;0.10;;;9.40;99.90;;;;;;5093333;28;20284;-84
2022/11/18 01:18:08;;;;;;;0.10;0.10;;;9.50;99.90;;;;;;5099299;28;20187;-84
2022/11/18 01:20:34;;;;;;;0.10;0.10;;;9.50;99.90;;;;;;5096912;28;20736;-85
2022/11/18 01:23:00;;;;;;;0.10;0.10;;;9.40;99.90;;;;;;5100279;28;20345;-84
2022/11/18 01:25:26;;;;;;;0.10;0.10;;;9.30;99.90;;;;;;5091566;28;20219;-84
2022/11/18 01:27:51;;;;;;;0.03;0.03;;;9.20;99.90;;;;;;5074803;28;20188;-84
2022/11/18 01:30:17;;;;;;;0.10;0.10;;;9.20;99.90;;;;;;5107577;28;20779;-85
2022/11/18 01:32:43;;;;;;;0.10;0.10;;;9.30;99.90;;;;;;5090384;28;20211;-84
2022/11/18 01:35:10;;;;;;;0.10;0.10;;;9.40;99.90;;;;;;5107055;28;20191;-84
2022/11/18 01:37:36;;;;;;;0.10;0.10;;;9.40;99.90;;;;;;5087495;28;20180;-85
2022/11/18 01:40:03;;;;;;;0.10;0.10;;;9.40;99.90;;;;;;5102583;28;20279;-84
2022/11/18 01:42:29;;;;;;;0.10;0.10;;;9.30;99.90;;;;;;5086281;28;20186;-84
2022/11/18 01:44:59;;;;;;;0.10;0.10;;;9.30;99.90;;;;;;5102744;28;20632;-84
2022/11/18 01:47:30;;;;;;;0.10;0.10;;;9.20;99.90;;;;;;5087433;28;20180;-84
2022/11/18 01:49:58;;;;;;;0.10;0.10;;;9.20;99.90;;;;;;5105914;28;20214;-84
2022/11/18 01:52:24;;;;;;;0.03;0.03;;;9.20;99.90;;;;;;5084211;28;20208;-84
2022/11/18 01:54:56;;;;;;;0.10;0.10;;;9.40;99.90;;;;;;5083541;28;20187;-84
2022/11/18 01:57:26;;;;;;;0.10;0.10;;;9.40;99.90;;;;;;5101401;28;20577;-84
2022/11/18 01:59:56;;;;;;;0.10;0.10;;;9.60;99.90;;;;;;5087472;28;20219;-85
2022/11/18 02:02:22;;;;;;;0.10;0.10;;;9.70;99.90;;;;;;5096533;28;20182;-85
2022/11/18 02:04:51;;;;;;;0.10;0.10;;;9.80;99.90;;;;;;5097645;28;20644;-85
2022/11/18 02:07:17;;;;;;;0.10;0.10;;;9.80;99.90;;;;;;5097165;28;20190;-85
2022/11/18 02:09:43;;;;;;;0.10;0.10;;;9.90;99.90;;;;;;5105546;28;20189;-85
2022/11/18 02:12:09;;;;;;;0.10;0.10;;;10.00;99.90;;;;;;5100315;28;20183;-84
2022/11/18 02:14:39;;;;;;;0.10;0.10;;;10.10;99.90;;;;;;5108069;28;20183;-84
2022/11/18 02:17:23;;;;;;;0.10;0.10;;;10.10;99.90;;;;;;5106609;28;20186;-85
2022/11/18 02:20:13;;;;;;;0.10;0.10;;;10.20;99.90;;;;;;5097277;28;20200;-84
2022/11/18 02:23:10;;;;;;;0.10;0.10;;;10.20;99.90;;;;;;5095853;28;20168;-84
2022/11/18 02:26:13;;;;;;;0.10;0.10;;;10.20;99.90;;;;;;5090913;28;20659;-84
2022/11/18 02:29:01;;;;;;;0.10;0.10;;;10.20;99.90;;;;;;5093587;28;20269;-84
2022/11/18 02:31:37;;;;;;;0.10;0.10;;;10.10;99.90;;;;;;5099760;28;20292;-84
2022/11/18 02:34:20;;;;;;;0.10;0.10;;;10.20;99.90;;;;;;5103641;28;20184;-84
2022/11/18 02:37:04;;;;;;;0.10;0.10;;;10.10;99.90;;;;;;5097344;28;20182;-84
2022/11/18 02:39:38;;;;;;;0.10;0.10;;;10.10;99.90;;;;;;5085731;28;20848;-84
2022/11/18 02:42:08;;;;;;;0.10;0.10;;;10.00;99.90;;;;;;5105246;28;20257;-84
2022/11/18 02:44:36;;;;;;;0.10;0.10;;;9.90;99.90;;;;;;5095188;28;20175;-84
2022/11/18 02:47:05;;;;;;;0.10;0.10;;;9.80;99.90;;;;;;5090902;28;20179;-83
2022/11/18 02:49:40;;;;;;;0.10;0.10;;;9.80;99.90;;;;;;5092907;28;20213;-84
2022/11/18 02:52:09;;;;;;;0.10;0.10;;;9.80;99.90;;;;;;5090666;28;20582;-84
2022/11/18 02:54:36;;;;;;;0.10;0.10;;;9.70;99.90;;;;;;5109215;27;20185;-84
2022/11/18 02:57:03;;;;;;;0.10;0.10;;;9.70;99.90;;;;;;5102234;28;20207;-83
2022/11/18 02:59:28;;;;;;;0.10;0.10;;;9.80;99.90;;;;;;5101906;28;20200;-84
2022/11/18 03:01:54;;;;;;;0.10;0.10;;;9.80;99.90;;;;;;5108458;28;20202;-84
2022/11/18 03:04:21;;;;;;;0.10;0.10;;;9.70;99.90;;;;;;5122975;28;20181;-84
2022/11/18 03:07:09;;;;;;;0.10;0.10;;;9.50;99.90;;;;;;5107877;28;20273;-84
2022/11/18 03:09:43;;;;;;;0.10;0.10;;;9.30;99.90;;;;;;5102474;28;20221;-85
2022/11/18 03:12:32;;;;;;;0.10;0.10;;;9.40;99.90;;;;;;5097400;28;20188;-84
2022/11/18 03:15:25;;;;;;;0.10;0.10;;;9.40;99.90;;;;;;5093062;28;20273;-84
2022/11/18 03:17:59;;;;;;;0.10;0.10;;;9.50;99.90;;;;;;5098029;28;20198;-83
2022/11/18 03:20:45;;;;;;;0.10;0.10;;;9.50;99.90;;;;;;5092816;28;20239;-84
2022/11/18 03:23:20;;;;;;;0.10;0.10;;;9.30;99.90;;;;;;5093577;28;20181;-84
2022/11/18 03:26:10;;;;;;;0.10;0.10;;;9.10;99.90;;;;;;5107654;28;20182;-84
2022/11/18 03:28:54;;;;;;;0.10;0.10;;;8.90;99.90;;;;;;5090848;28;20627;-84
2022/11/18 03:31:33;;;;;;;0.10;0.10;;;8.80;99.90;;;;;;5099050;28;20214;-84
2022/11/18 03:34:12;;;;;;;0.10;0.10;;;8.90;99.90;;;;;;5100118;28;20185;-84
2022/11/18 03:36:44;;;;;;;0.10;0.10;;;8.90;99.90;;;;;;5099607;28;20265;-84
2022/11/18 03:39:11;;;;;;;0.10;0.10;;;9.00;99.90;;;;;;5100944;28;20236;-84
2022/11/18 03:41:41;;;;;;;0.10;0.10;;;9.10;99.90;;;;;;5093974;28;20201;-84
2022/11/18 03:44:12;;;;;;;0.10;0.10;;;9.10;99.90;;;;;;5095493;28;20666;-84
2022/11/18 03:46:49;;;;;;;0.00;0.00;;;9.20;99.90;;;;;;5091134;28;20173;-84
2022/11/18 03:49:28;;;;;;;0.10;0.10;;;9.20;99.90;;;;;;5102034;28;20174;-84
2022/11/18 03:51:59;;;;;;;0.10;0.10;;;9.10;99.90;;;;;;5105694;28;20183;-86
2022/11/18 03:54:28;;;;;;;0.10;0.10;;;9.00;99.90;;;;;;5094413;28;20193;-85
2022/11/18 03:56:59;;;;;;;0.00;0.00;;;9.00;99.90;;;;;;5096086;28;20218;-84
2022/11/18 03:59:34;;;;;;;0.10;0.10;;;9.20;99.90;;;;;;5091355;28;20274;-85
2022/11/18 04:02:18;;;;;;;0.00;0.00;;;9.30;99.90;;;;;;5094716;28;20185;-85
2022/11/18 04:04:48;;;;;;;0.10;0.10;;;9.40;99.90;;;;;;5106888;28;20177;-85
2022/11/18 04:07:33;;;;;;;0.10;0.10;;;9.40;99.90;;;;;;5114146;28;20171;-85
2022/11/18 04:10:24;;;;;;;0.00;0.00;;;9.40;99.90;;;;;;5103015;28;20300;-85
2022/11/18 04:12:55;;;;;;;0.10;0.10;;;9.40;99.90;;;;;;5094249;28;20189;-85
2022/11/18 04:15:21;;;;;;;0.10;0.10;;;9.50;99.90;;;;;;5107801;28;20177;-85
2022/11/18 04:17:46;;;;;;;0.10;0.10;;;9.40;99.90;;;;;;5105188;28;20186;-85
2022/11/18 04:20:18;;;;;;;0.10;0.10;;;9.30;99.90;;;;;;5097060;28;20231;-85
2022/11/18 04:22:43;;;;;;;0.00;0.00;;;9.20;99.90;;;;;;5099526;28;20179;-85
2022/11/18 04:25:09;;;;;;;0.10;0.10;;;9.30;99.90;;;;;;5104986;28;20173;-85
2022/11/18 04:27:35;;;;;;;0.10;0.10;;;9.40;99.90;;;;;;5102787;28;20258;-85
2022/11/18 04:30:00;;;;;;;0.10;0.10;;;9.50;99.90;;;;;;5100830;28;20216;-86
2022/11/18 04:32:26;;;;;;;0.10;0.10;;;9.60;99.90;;;;;;5104604;28;20190;-84
2022/11/18 04:34:51;;;;;;;0.10;0.10;;;9.60;99.90;;;;;;5119075;28;20183;-85
2022/11/18 04:37:17;;;;;;;0.00;0.00;;;9.60;99.90;;;;;;5103130;28;20178;-85
2022/11/18 04:39:42;;;;;;;0.10;0.10;;;9.70;99.90;;;;;;5111138;28;20202;-85
2022/11/18 04:42:08;;;;;;;0.10;0.10;;;9.70;99.90;;;;;;5105970;28;20209;-85
2022/11/18 04:44:34;;;;;;;0.10;0.10;;;9.50;99.90;;;;;;5123031;28;20164;-85
2022/11/18 04:47:02;;;;;;;0.10;0.10;;;9.60;99.90;;;;;;5111561;28;20166;-86
2022/11/18 04:49:28;;;;;;;0.10;0.10;;;9.60;99.90;;;;;;5119768;28;20223;-85
2022/11/18 04:51:55;;;;;;;0.10;0.10;;;9.70;99.90;;;;;;5123772;28;20167;-86
2022/11/18 04:54:21;;;;;;;0.10;0.10;;;9.70;99.90;;;;;;5119227;28;20174;-85
2022/11/18 04:56:47;;;;;;;0.10;0.10;;;9.80;99.90;;;;;;5120406;28;20225;-85
2022/11/18 04:59:15;;;;;;;0.10;0.10;;;9.90;99.90;;;;;;5115241;28;20191;-85
2022/11/18 05:01:40;;;;;;;0.10;0.10;;;9.90;99.90;;;;;;5118235;28;20265;-85
2022/11/18 05:04:07;;;;;;;0.10;0.10;;;10.00;99.90;;;;;;5113158;28;20180;-86
2022/11/18 05:06:33;;;;;;;0.10;0.10;;;10.00;99.90;;;;;;5129361;28;20176;-86
2022/11/18 05:09:00;;;;;;;0.10;0.10;;;10.00;99.90;;;;;;5125729;28;20171;-86
2022/11/18 05:14:11;;;;;;;0.10;0.10;;;10.10;99.90;;;;;;5125614;28;20284;-85
2022/11/18 05:16:37;;;;;;;0.10;0.10;;;10.10;99.90;;;;;;5121143;28;20183;-86
2022/11/18 05:19:04;;;;;;;0.10;0.10;;;10.00;99.90;;;;;;5112856;28;20191;-85
2022/11/18 05:21:30;;;;;;;0.10;0.10;;;10.00;99.90;;;;;;5125731;28;20214;-86
2022/11/18 05:23:57;;;;;;;0.10;0.10;;;10.00;99.90;;;;;;5126764;28;20179;-85
2022/11/18 05:26:22;;;;;;;0.10;0.10;;;10.00;99.90;;;;;;5114517;28;20185;-85
2022/11/18 05:28:48;;;;;;;0.10;0.10;;;10.00;99.90;;;;;;5093583;28;20199;-85
2022/11/18 05:31:15;;;;;;;0.10;0.10;;;10.10;99.90;;;;;;5113316;28;20197;-85
2022/11/18 05:33:41;;;;;;;0.00;0.00;;;10.00;99.90;;;;;;5110331;28;20175;-86
2022/11/18 05:36:09;;;;;;;0.10;0.10;;;10.00;99.90;;;;;;5110230;28;20247;-85
2022/11/18 05:38:35;;;;;;;0.10;0.10;;;10.00;99.90;;;;;;5111844;28;20186;-85
2022/11/18 05:41:01;;;;;;;0.10;0.10;;;10.10;99.90;;;;;;5123182;28;20203;-85
2022/11/18 05:43:28;;;;;;;0.10;0.10;;;10.10;99.90;;;;;;5135884;28;20187;-86
2022/11/18 05:45:54;;;;;;;0.10;0.10;;;10.10;99.90;;;;;;5117015;28;20204;-85
2022/11/18 05:48:20;;;;;;;0.10;0.10;;;10.00;99.90;;;;;;5136222;28;20190;-86
2022/11/18 05:50:49;;;;;;;0.10;0.10;;;10.00;99.90;;;;;;5124354;28;20479;-86
2022/11/18 05:53:15;;;;;;;0.10;0.10;;;9.90;99.90;;;;;;5131216;28;20189;-85
2022/11/18 05:55:55;;;;;;;0.03;0.03;;;10.00;99.90;;;;;;5112141;28;20207;-86
2022/11/18 05:58:21;;;;;;;0.10;0.10;;;10.00;99.90;;;;;;5130741;28;20169;-86
2022/11/18 06:00:52;;;;;;;0.10;0.10;;;10.10;99.90;;;;;;5124982;28;20214;-84
2022/11/18 06:03:22;;;;;;;0.10;0.10;;;9.90;99.90;;;;;;5116206;28;20233;-87
2022/11/18 06:05:49;;;;;;;0.10;0.10;;;10.00;99.90;;;;;;5122005;28;20240;-86
2022/11/18 06:08:18;;;;;;;0.10;0.10;;;10.00;99.90;;;;;;5121773;28;20198;-85
2022/11/18 06:10:45;;;;;;;0.10;0.10;;;10.10;99.90;;;;;;5122464;28;20183;-86
2022/11/18 06:13:19;;;;;;;0.03;0.03;;;10.10;99.90;;;;;;5121906;28;21294;-86
2022/11/18 06:15:45;;;;;;;0.10;0.10;;;10.00;99.90;;;;;;5107939;28;20164;-85
2022/11/18 06:18:12;;;;;;;0.10;0.10;;;10.10;99.90;;;;;;5102578;28;20180;-86
2022/11/18 06:20:40;;;;;;;0.10;0.10;;;10.10;99.90;;;;;;5120405;28;20196;-86
2022/11/18 06:23:05;;;;;;;0.10;0.10;;;10.10;99.90;;;;;;5122639;28;20805;-85
2022/11/18 06:25:32;;;;;;;0.10;0.10;;;10.10;99.90;;;;;;5119819;28;20168;-86
2022/11/18 06:28:00;;;;;;;0.10;0.10;;;10.10;99.90;;;;;;5118905;28;20175;-86
2022/11/18 06:30:26;;;;;;;0.10;0.10;;;10.20;99.90;;;;;;5135051;28;20194;-85
2022/11/18 06:32:51;;;;;;;0.10;0.10;;;10.20;99.90;;;;;;5114723;28;20187;-86
2022/11/18 06:35:17;;;;;;;0.10;0.10;;;10.10;99.90;;;;;;5132455;28;20234;-86
2022/11/18 06:37:43;;;;;;;0.10;0.10;;;10.20;99.90;;;;;;5099187;28;20164;-86
2022/11/18 06:40:09;;;;;;;0.10;0.10;;;10.10;99.90;;;;;;5127705;28;20205;-85
2022/11/18 06:45:19;;;;;;;0.10;0.10;;;10.10;99.90;;;;;;5123743;28;20193;-86
2022/11/18 06:47:44;;;;;;;0.10;0.10;;;10.00;99.90;;;;;;5110842;28;20170;-85
2022/11/18 06:50:10;;;;;;;0.10;0.10;;;10.10;99.90;;;;;;5105755;28;20211;-85
2022/11/18 06:52:36;;;;;;;0.10;0.10;;;10.10;99.90;;;;;;5107615;28;20184;-85
2022/11/18 06:55:01;;;;;;;0.10;0.10;;;10.10;99.90;;;;;;5114364;28;20177;-84
2022/11/18 06:57:27;;;;;;;0.10;0.10;;;10.10;99.90;;;;;;5106379;28;20204;-85
2022/11/18 06:59:53;;;;;;;0.10;0.10;;;10.10;99.90;;;;;;5116616;28;20205;-85
2022/11/18 07:02:18;;;;;;;0.10;0.10;;;10.10;99.90;;;;;;5105386;28;20186;-85
2022/11/18 07:04:44;;;;;;;0.10;0.10;;;10.10;99.90;;;;;;5095437;28;20190;-85
2022/11/18 07:07:10;;;;;;;0.00;0.00;;;10.10;99.90;;;;;;5091412;28;20187;-85
2022/11/18 07:09:36;;;;;;;0.10;0.10;;;10.00;99.90;;;;;;5096346;28;20201;-85
2022/11/18 07:12:03;;;;;;;0.10;0.10;;;10.00;99.90;;;;;;5101141;28;20187;-85
2022/11/18 07:14:29;;;;;;;0.10;0.10;;;10.00;99.90;;;;;;5093779;28;20212;-85
2022/11/18 07:16:54;;;;;;;0.10;0.10;;;10.00;99.90;;;;;;5106888;28;20190;-85
2022/11/18 07:19:20;;;;;;;0.00;0.00;;;10.00;99.90;;;;;;5092668;28;20208;-84
2022/11/18 07:21:46;;;;;;;0.10;0.10;;;10.00;99.90;;;;;;5097164;28;20251;-85
2022/11/18 07:24:13;;;;;;;0.10;0.10;;;10.00;99.90;;;;;;5105856;28;20187;-85
2022/11/18 07:26:39;;;;;;;0.10;0.10;;;10.10;99.90;;;;;;5094914;28;20270;-84
2022/11/18 07:29:05;;;;;;;0.10;0.10;;;10.00;99.90;;;;;;5091795;28;20266;-84
2022/11/18 07:31:31;;;;;;;0.10;0.10;;;10.10;99.90;;;;;;5103100;28;20209;-84
2022/11/18 07:33:57;;;;;;;0.10;0.10;;;10.00;99.90;;;;;;5089692;28;20233;-85
2022/11/18 07:36:25;;;;;;;0.10;0.10;;;10.00;99.90;;;;;;5093973;28;20634;-85
2022/11/18 07:38:52;;;;;;;0.03;0.03;;;10.00;99.90;;;;;;5099547;28;20229;-86
2022/11/18 07:41:22;;;;;;;0.10;0.10;;;10.00;99.90;;;;;;5107303;28;20211;-85
2022/11/18 07:43:49;;;;;;;0.10;0.10;;;10.00;99.90;;;;;;5115464;28;20164;-85
2022/11/18 07:46:27;;;;;;;0.10;0.10;;;10.00;99.90;;;;;;5098457;28;20181;-85
2022/11/18 07:48:54;;;;;;;0.10;0.10;;;9.90;99.90;;;;;;5102749;28;20184;-85
2022/11/18 07:51:23;;;;;;;0.10;0.10;;;9.90;99.90;;;;;;5096296;28;20206;-84
2022/11/18 07:53:49;;;;;;;0.10;0.10;;;9.90;99.90;;;;;;5098753;28;20179;-85
2022/11/18 07:56:15;;;;;;;0.10;0.10;;;9.90;99.90;;;;;;5110269;28;20194;-86
2022/11/18 07:58:41;;;;;;;0.10;0.10;;;10.00;99.90;;;;;;5090195;28;20675;-85
2022/11/18 08:01:15;;;;;;;0.00;0.00;;;10.00;99.90;;;;;;5108316;28;20214;-84
2022/11/18 08:03:41;;;;;;;0.00;0.00;;;10.10;99.90;;;;;;5104382;28;20180;-85
2022/11/18 08:06:09;;;;;;;0.00;0.00;;;10.10;99.90;;;;;;5093471;28;20180;-85
2022/11/18 08:08:35;;;;;;;0.10;0.10;;;10.10;99.90;;;;;;5094372;28;20175;-84
2022/11/18 08:11:04;;;;;;;0.10;0.10;;;10.10;99.90;;;;;;5092145;28;20229;-85
2022/11/18 08:13:30;;;;;;;0.10;0.10;;;10.10;99.90;;;;;;5095362;28;20274;-85
2022/11/18 08:15:56;;;;;;;0.00;0.00;;;10.10;99.90;;;;;;5094072;28;20615;-84
2022/11/18 08:18:22;;;;;;;0.03;0.03;;;10.10;99.90;;;;;;5093181;28;20183;-85
2022/11/18 08:20:48;;;;;;;0.10;0.10;;;10.10;99.90;;;;;;5106196;28;20237;-85
2022/11/18 08:23:14;;;;;;;0.10;0.10;;;10.10;99.90;;;;;;5104263;28;20206;-85
2022/11/18 08:25:41;;;;;;;0.07;0.07;;;10.10;99.90;;;;;;5093456;28;20276;-85
2022/11/18 08:28:08;;;;;;;0.10;0.10;;;10.10;99.90;;;;;;5097274;28;20175;-85
2022/11/18 08:30:34;;;;;;;0.10;0.10;;;10.20;99.90;;;;;;5092082;28;20213;-85
2022/11/18 08:33:00;;;;;;;0.10;0.10;;;10.20;99.90;;;;;;5079087;28;20658;-84
2022/11/18 08:35:28;;;;;;;0.10;0.10;;;10.20;99.90;;;;;;5092105;28;20220;-85
2022/11/18 08:37:53;;;;;;;0.10;0.10;;;10.20;99.90;;;;;;5101893;28;20217;-85
2022/11/18 08:40:19;;;;;;;0.10;0.10;;;10.30;99.90;;;;;;5106422;28;20293;-84
2022/11/18 08:42:45;;;;;;;0.10;0.10;;;10.30;99.90;;;;;;5083474;28;20185;-84
2022/11/18 08:45:10;;;;;;;0.10;0.10;;;10.30;99.90;;;;;;5092885;28;20175;-84
2022/11/18 08:47:36;;;;;;;0.10;0.10;;;10.30;99.90;;;;;;5099498;28;20191;-85
2022/11/18 08:50:04;;;;;;;0.10;0.10;;;10.20;99.90;;;;;;5103315;28;20280;-84
2022/11/18 08:52:30;;;;;;;0.10;0.10;;;10.30;99.90;;;;;;5081404;28;20171;-84
2022/11/18 08:54:56;;;;;;;0.00;0.00;;;10.30;99.90;;;;;;5101391;28;20177;-85
2022/11/18 08:57:22;;;;;;;0.10;0.10;;;10.30;99.90;;;;;;5099869;28;20266;-85
2022/11/18 08:59:47;;;;;;;0.10;0.10;;;10.30;99.90;;;;;;5102874;28;20227;-85
2022/11/18 09:02:14;;;;;;;0.10;0.10;;;10.40;99.90;;;;;;5100190;28;20184;-85
2022/11/18 09:04:40;;;;;;;0.10;0.10;;;10.40;99.90;;;;;;5098119;28;20793;-84
2022/11/18 09:07:06;;;;;;;0.00;0.00;;;10.40;99.90;;;;;;5096206;28;20173;-85
2022/11/18 09:09:32;;;;;;;0.10;0.10;;;10.40;99.90;;;;;;5098936;28;20202;-85
2022/11/18 09:11:57;;;;;;;0.10;0.10;;;10.50;99.90;;;;;;5097463;28;20255;-85
2022/11/18 09:14:23;;;;;;;0.10;0.10;;;10.50;99.90;;;;;;5111406;28;20185;-85
2022/11/18 09:16:48;;;;;;;0.10;0.10;;;10.60;99.90;;;;;;5089479;28;20587;-84
2022/11/18 09:19:15;;;;;;;0.10;0.10;;;10.70;99.90;;;;;;5109107;28;20202;-85
2022/11/18 09:21:40;;;;;;;0.00;0.00;;;10.80;99.90;;;;;;5086845;28;20259;-85
2022/11/18 09:24:07;;;;;;;0.10;0.10;;;10.80;99.90;;;;;;5107190;28;20190;-84
2022/11/18 09:26:35;;;;;;;0.10;0.10;;;10.80;99.90;;;;;;5103834;28;20206;-84
2022/11/18 09:29:00;;;;;;;0.10;0.10;;;10.80;99.90;;;;;;5093663;28;20183;-85
2022/11/18 09:31:26;;;;;;;0.10;0.10;;;11.00;99.90;;;;;;5101623;28;20284;-85
2022/11/18 09:33:52;;;;;;;0.10;0.10;;;11.00;99.90;;;;;;5093883;28;20706;-85
2022/11/18 09:36:20;;;;;;;0.10;0.10;;;11.00;99.90;;;;;;5097312;28;20207;-85
2022/11/18 09:38:46;;;;;;;0.10;0.10;;;11.00;99.90;;;;;;5093309;28;20191;-85
2022/11/18 09:41:44;;;;;;;0.10;0.10;;;11.00;99.90;;;;;;5103488;28;20211;-85
2022/11/18 09:44:50;;;;;;;0.10;0.10;;;11.10;99.90;;;;;;5103242;28;20180;-84
2022/11/18 09:47:29;;;;;;;0.10;0.10;;;11.10;99.90;;;;;;5105049;28;20180;-84
2022/11/18 09:49:59;;;;;;;0.10;0.10;;;11.10;99.90;;;;;;5105013;28;20198;-85
2022/11/18 09:52:32;;;;;;;0.10;0.10;;;11.20;99.90;;;;;;5084445;28;20718;-85
2022/11/18 09:54:58;;;;;;;0.10;0.10;;;11.30;99.90;;;;;;5103716;28;20691;-85
2022/11/18 09:57:46;;;;;;;0.10;0.10;;;11.30;99.90;;;;;;5098459;28;20196;-86
2022/11/18 10:00:19;;;;;;;0.00;0.00;;;11.30;99.90;;;;;;5102662;28;20584;-85
2022/11/18 10:03:18;;;;;;;0.10;0.10;;;11.40;99.90;;;;;;5095746;28;20634;-84
2022/11/18 10:05:56;;;;;;;0.10;0.10;;;11.40;99.90;;;;;;5088888;28;20190;-85
2022/11/18 10:08:34;;;;;;;0.00;0.00;;;11.40;99.90;;;;;;5086708;28;20204;-85
2022/11/18 10:11:09;;;;;;;0.10;0.10;;;11.40;99.90;;;;;;5105271;28;20210;-86
2022/11/18 10:13:46;;;;;;;0.10;0.10;;;11.30;99.90;;;;;;5095602;28;20179;-84
2022/11/18 10:16:28;;;;;;;0.10;0.10;;;11.30;99.90;;;;;;5091180;28;20184;-84
2022/11/18 10:19:24;;;;;;;0.10;0.10;;;11.30;99.90;;;;;;5108114;28;20177;-85
2022/11/18 10:22:12;;;;;;;0.10;0.10;;;11.40;99.90;;;;;;5100210;28;20731;-84
2022/11/18 10:24:41;;;;;;;0.10;0.10;;;11.50;99.90;;;;;;5095582;28;20234;-85
2022/11/18 10:27:15;;;;;;;0.10;0.10;;;11.60;99.90;;;;;;5088843;28;20237;-84
2022/11/18 10:29:42;;;;;;;0.10;0.10;;;11.60;99.90;;;;;;5104525;28;20578;-85
2022/11/18 10:32:14;;;;;;;0.10;0.10;;;11.70;99.90;;;;;;5094666;28;20191;-85
2022/11/18 10:34:52;;;;;;;0.10;0.10;;;11.60;99.90;;;;;;5105021;28;20182;-84
2022/11/18 10:37:32;;;;;;;0.10;0.10;;;11.60;99.90;;;;;;5090478;28;20549;-85
2022/11/18 10:40:00;;;;;;;0.10;0.10;;;11.60;99.90;;;;;;5105592;28;20207;-85
2022/11/18 10:42:40;;;;;;;0.10;0.10;;;11.60;99.90;;;;;;5087119;28;20186;-85
2022/11/18 10:45:27;;;;;;;0.10;0.10;;;11.60;99.90;;;;;;5106016;28;20553;-84
2022/11/18 10:48:15;;;;;;;0.10;0.10;;;11.70;99.90;;;;;;5100668;28;20174;-85
2022/11/18 10:50:44;;;;;;;0.10;0.10;;;11.80;99.90;;;;;;5105760;28;20202;-84
2022/11/18 10:53:31;;;;;;;0.10;0.10;;;11.90;99.90;;;;;;5094668;28;20198;-85
2022/11/18 10:56:10;;;;;;;0.10;0.10;;;11.90;99.90;;;;;;5096852;28;20195;-84
2022/11/18 10:58:41;;;;;;;0.10;0.10;;;12.00;99.90;;;;;;5103427;28;20190;-84
2022/11/18 11:01:18;;;;;;;0.10;0.10;;;12.00;99.90;;;;;;5095321;28;20215;-85
2022/11/18 11:04:00;;;;;;;0.10;0.10;;;12.00;99.90;;;;;;5099223;28;20211;-85
2022/11/18 11:06:25;;;;;;;0.10;0.10;;;12.00;99.90;;;;;;5095672;28;20228;-85
2022/11/18 11:09:14;;;;;;;0.10;0.10;;;12.00;99.90;;;;;;5093426;28;20175;-84
2022/11/18 11:11:53;;;;;;;0.10;0.10;;;12.00;99.90;;;;;;5095027;28;20666;-85
2022/11/18 11:14:23;;;;;;;0.10;0.10;;;12.10;99.90;;;;;;5107555;28;20190;-85
2022/11/18 11:17:13;;;;;;;0.10;0.10;;;12.10;99.90;;;;;;5087531;28;20558;-85
2022/11/18 11:19:55;;;;;;;0.10;0.10;;;12.20;99.90;;;;;;5104493;28;20654;-85
2022/11/18 11:22:21;;;;;;;0.10;0.10;;;12.20;99.90;;;;;;5106812;28;20182;-85
2022/11/18 11:24:47;;;;;;;0.10;0.10;;;12.10;99.90;;;;;;5089436;28;20180;-84
2022/11/18 11:27:41;;;;;;;0.10;0.10;;;12.10;99.90;;;;;;5107863;28;20182;-85
2022/11/18 11:30:13;;;;;;;0.10;0.10;;;12.00;99.90;;;;;;5089887;28;20204;-85
2022/11/18 11:32:57;;;;;;;0.10;0.10;;;12.00;99.90;;;;;;5094352;28;20168;-85
2022/11/18 11:35:31;;;;;;;2.00;1.90;;;11.90;99.90;;;;;;5107431;28;20674;-85
2022/11/18 11:38:11;;;;;;;0.10;0.10;;;11.90;99.90;;;;;;5090825;28;20274;-85
2022/11/18 11:41:06;;;;;;;0.10;0.10;;;11.80;99.90;;;;;;5108393;27;20211;-85
2022/11/18 11:44:09;;;;;;;0.10;0.10;;;11.80;99.90;;;;;;5066164;28;20240;-85
2022/11/18 11:46:43;;;;;;;0.10;0.10;;;11.80;99.90;;;;;;5091706;28;20187;-85
2022/11/18 11:49:28;;;;;;;0.10;0.10;;;11.80;99.90;;;;;;5099909;28;20182;-85
2022/11/18 11:51:57;;;;;;;0.10;0.10;;;11.90;99.90;;;;;;5100392;28;20189;-85
2022/11/18 11:54:41;;;;;;;0.10;0.10;;;12.00;99.90;;;;;;5094338;28;20223;-84
2022/11/18 11:57:38;;;;;;;0.10;0.10;;;12.10;99.90;;;;;;5098065;28;20201;-84
2022/11/18 12:00:10;;;;;;;0.10;0.10;;;12.80;99.90;;;;;;5098635;28;20200;-85
2022/11/18 12:02:59;;;;;;;0.10;0.10;;;13.10;99.90;;;;;;5092804;28;20185;-85
2022/11/18 12:05:39;;;;;;;0.10;0.10;;;13.20;99.90;;;;;;5085863;28;20253;-85
2022/11/18 12:08:16;;;;;;;0.10;0.10;;;13.10;99.90;;;;;;5088496;28;20184;-85
2022/11/18 12:10:55;;;;;;;0.10;0.10;;;13.20;99.90;;;;;;5093555;28;20577;-85
2022/11/18 12:13:25;;;;;;;0.10;0.10;;;13.20;99.90;;;;;;5086114;28;20189;-87
2022/11/18 12:15:59;;;;;;;0.10;0.10;;;12.90;99.90;;;;;;5104541;28;20171;-84
2022/11/18 12:18:39;;;;;;;0.10;0.10;;;12.80;99.90;;;;;;5081870;28;20250;-86
2022/11/18 12:21:04;;;;;;;0.10;0.10;;;12.70;99.90;;;;;;5101702;28;20211;-85
2022/11/18 12:23:32;;;;;;;0.10;0.10;;;13.00;99.90;;;;;;5096281;28;20180;-85
2022/11/18 12:26:09;;;;;;;0.10;0.10;;;13.20;99.90;;;;;;5099380;28;20187;-84
2022/11/18 12:28:43;;;;;;;0.10;0.10;;;13.10;99.90;;;;;;5090209;28;20554;-85
2022/11/18 12:31:19;;;;;;;0.10;0.10;;;13.30;99.90;;;;;;5084168;28;20211;-85
2022/11/18 12:33:45;;;;;;;0.10;0.10;;;13.60;99.90;;;;;;5101611;28;20204;-84
2022/11/18 12:36:35;;;;;;;0.10;0.10;;;13.90;99.90;;;;;;5097795;28;20190;-85
2022/11/18 12:39:22;;;;;;;0.10;0.10;;;14.20;99.90;;;;;;5098540;28;20589;-85
2022/11/18 12:44:50;;;;;;;0.10;0.10;;;14.30;99.90;;;;;;5095262;28;20233;-84
2022/11/18 12:47:39;;;;;;;0.10;0.10;;;14.20;99.90;;;;;;5100275;28;20207;-85
2022/11/18 12:50:13;;;;;;;0.10;0.10;;;13.90;99.90;;;;;;5090688;28;20272;-85
2022/11/18 12:52:39;;;;;;;0.10;0.10;;;13.90;99.90;;;;;;5091678;28;20284;-85
2022/11/18 12:55:19;;;;;;;0.00;0.00;;;14.10;99.90;;;;;;5090014;28;20185;-84
2022/11/18 12:57:45;;;;;;;0.10;0.10;;;14.00;99.90;;;;;;5094949;28;20205;-84
2022/11/18 13:00:27;;;;;;;0.00;0.00;;;13.80;99.90;;;;;;5087170;28;20208;-85
2022/11/18 13:02:59;;;;;;;0.10;0.10;;;13.80;99.90;;;;;;5091788;28;20252;-85
2022/11/18 13:05:30;;;;;;;0.10;0.10;;;13.50;99.90;;;;;;5096357;28;20269;-85
2022/11/18 13:08:13;;;;;;;0.07;0.07;;;13.50;99.90;;;;;;5089586;28;20183;-85
2022/11/18 13:10:47;;;;;;;0.10;0.10;;;13.20;99.90;;;;;;5099247;28;20548;-85
2022/11/18 13:13:28;;;;;;;0.10;0.10;;;13.00;99.90;;;;;;5084243;28;20184;-86
2022/11/18 13:18:52;;;;;;;0.10;0.10;;;12.90;99.90;;;;;;5094732;28;20563;-85
2022/11/18 13:24:12;;;;;;;0.10;0.10;;;13.00;99.90;;;;;;5104662;28;20191;-85
2022/11/18 13:26:41;;;;;;;0.10;0.10;;;13.10;99.90;;;;;;5080336;28;20311;-85
2022/11/18 13:29:14;;;;;;;0.10;0.10;;;13.10;99.90;;;;;;5101616;28;20751;-85
2022/11/18 13:31:54;;;;;;;0.10;0.10;;;12.90;99.90;;;;;;5093406;28;20176;-85